Terminal Aerodrome Forecast
Issued by NWS

Home | Current Version | Previous Version | Text Only | Print | Product List | Glossary On
Versions: 1 2 3 4 5 6 7 8 9 10 11 12 13 14 15 16 17
000
FTUS43 KDLH 260500
TAFHYR
TAF
KHYR 260524Z 2606/2706 29010G18KT P6SM OVC035
      TEMPO 2606/2609 OVC027
     FM260900 32013KT P6SM OVC030
     FM261600 34012KT P6SM BKN040
     FM270200 01007KT P6SM BKN035=

USA.gov is the U.S. government's official web portal to all federal, state and local government web resources and services.